createdAt,value
2022-10-28T00:01:41.766Z,67.20
2022-10-28T00:04:07.880Z,67.11
2022-10-28T00:06:33.964Z,66.95
2022-10-28T00:09:00.079Z,66.88
2022-10-28T00:11:26.210Z,66.86
2022-10-28T00:13:52.311Z,66.71
2022-10-28T00:16:18.454Z,66.70
2022-10-28T00:18:44.550Z,66.55
2022-10-28T00:21:10.644Z,66.54
2022-10-28T00:23:36.761Z,66.51
2022-10-28T00:26:02.857Z,66.44
2022-10-28T00:28:28.947Z,66.36
2022-10-28T00:30:55.136Z,66.31
2022-10-28T00:33:21.239Z,66.09
2022-10-28T00:35:47.323Z,66.05
2022-10-28T00:38:13.438Z,65.87
2022-10-28T00:40:39.542Z,65.79
2022-10-28T00:43:05.645Z,65.72
2022-10-28T00:45:32.256Z,65.65
2022-10-28T00:47:58.350Z,65.52
2022-10-28T00:50:24.450Z,65.42
2022-10-28T00:52:50.575Z,65.24
2022-10-28T00:55:16.695Z,65.19
2022-10-28T00:57:42.794Z,65.01
2022-10-28T01:00:08.917Z,64.94
2022-10-28T01:02:35.041Z,64.69
2022-10-28T01:05:01.153Z,64.55
2022-10-28T01:07:27.274Z,64.41
2022-10-28T01:09:53.371Z,64.23
2022-10-28T01:12:19.463Z,64.17
2022-10-28T01:14:45.557Z,64.00
2022-10-28T01:17:11.662Z,63.90
2022-10-28T01:19:37.750Z,63.71
2022-10-28T01:22:03.849Z,63.63
2022-10-28T01:24:29.946Z,63.47
2022-10-28T01:26:56.024Z,63.43
2022-10-28T01:29:22.124Z,63.23
2022-10-28T01:31:48.208Z,63.04
2022-10-28T01:34:14.332Z,62.90
2022-10-28T01:36:40.452Z,62.64
2022-10-28T01:39:06.537Z,62.45
2022-10-28T01:41:32.626Z,62.31
2022-10-28T01:43:58.742Z,62.37
2022-10-28T01:46:24.836Z,62.13
2022-10-28T01:48:50.921Z,61.89
2022-10-28T01:51:17.477Z,61.90
2022-10-28T01:53:43.577Z,61.67
2022-10-28T01:56:09.671Z,61.54
2022-10-28T01:58:35.771Z,61.36
2022-10-28T02:01:01.911Z,61.15
2022-10-28T02:03:28.050Z,60.86
2022-10-28T02:05:54.152Z,60.78
2022-10-28T02:08:20.236Z,60.72
2022-10-28T02:10:46.365Z,60.53
2022-10-28T02:13:12.478Z,60.47
2022-10-28T02:15:38.579Z,60.25
2022-10-28T02:18:04.669Z,60.05
2022-10-28T02:20:30.783Z,60.02
2022-10-28T02:22:56.878Z,59.89
2022-10-28T02:25:22.952Z,59.71
2022-10-28T02:27:49.064Z,59.78
2022-10-28T02:30:15.176Z,59.65
2022-10-28T02:32:41.270Z,59.65
2022-10-28T02:35:07.894Z,59.52
2022-10-28T02:37:33.983Z,59.42
2022-10-28T02:40:00.109Z,59.35
2022-10-28T02:42:26.215Z,59.27
2022-10-28T02:44:52.349Z,59.33
2022-10-28T02:47:18.441Z,59.23
2022-10-28T02:49:44.536Z,59.25
2022-10-28T02:52:10.675Z,59.20
2022-10-28T02:54:36.765Z,59.28
2022-10-28T02:57:03.345Z,59.33
2022-10-28T02:59:29.440Z,59.22
2022-10-28T03:01:55.602Z,59.27
2022-10-28T03:04:21.820Z,59.36
2022-10-28T03:06:47.909Z,59.38
2022-10-28T03:09:14.045Z,59.27
2022-10-28T03:11:40.172Z,59.36
2022-10-28T03:14:06.255Z,59.31
2022-10-28T03:16:32.346Z,59.16
2022-10-28T03:18:58.523Z,59.20
2022-10-28T03:21:24.653Z,59.24
2022-10-28T03:23:50.747Z,59.26
2022-10-28T03:26:16.851Z,59.39
2022-10-28T03:28:42.945Z,59.35
2022-10-28T03:31:09.043Z,59.38
2022-10-28T03:33:35.150Z,59.43
2022-10-28T03:36:01.241Z,59.43
2022-10-28T03:38:27.335Z,59.57
2022-10-28T03:40:53.444Z,59.50
2022-10-28T03:43:19.581Z,59.63
2022-10-28T03:45:45.683Z,59.55
2022-10-28T03:48:11.798Z,59.55
2022-10-28T03:50:37.909Z,59.58
2022-10-28T03:53:03.999Z,59.57
2022-10-28T03:55:30.106Z,59.68
2022-10-28T03:57:56.400Z,59.67
2022-10-28T04:00:22.861Z,59.80
2022-10-28T04:02:48.971Z,59.81
2022-10-28T04:05:15.057Z,59.91
2022-10-28T04:07:41.171Z,59.86
2022-10-28T04:10:07.276Z,59.97
2022-10-28T04:12:33.354Z,60.01
2022-10-28T04:14:59.448Z,59.98
2022-10-28T04:17:25.569Z,60.13
2022-10-28T04:19:51.657Z,60.16
2022-10-28T04:22:17.750Z,60.26
2022-10-28T04:24:43.872Z,60.18
2022-10-28T04:27:09.960Z,60.31
2022-10-28T04:29:36.036Z,60.39
2022-10-28T04:32:04.016Z,60.48
2022-10-28T04:34:30.108Z,60.57
2022-10-28T04:36:56.209Z,60.64
2022-10-28T04:39:22.805Z,60.72
2022-10-28T04:41:48.948Z,60.78
2022-10-28T04:44:15.041Z,60.89
2022-10-28T04:46:41.253Z,60.91
2022-10-28T04:49:07.423Z,60.92
2022-10-28T04:51:33.623Z,60.94
2022-10-28T04:53:59.777Z,61.17
2022-10-28T04:56:25.864Z,61.13
2022-10-28T04:58:51.967Z,61.23
2022-10-28T05:01:18.445Z,61.33
2022-10-28T05:03:44.552Z,61.38
2022-10-28T05:06:10.641Z,61.53
2022-10-28T05:08:36.744Z,61.62
2022-10-28T05:11:02.832Z,61.71
2022-10-28T05:13:28.938Z,61.79
2022-10-28T05:15:55.075Z,61.82
2022-10-28T05:18:21.182Z,61.84
2022-10-28T05:20:47.263Z,61.95
2022-10-28T05:23:13.392Z,62.14
2022-10-28T05:25:39.485Z,62.17
2022-10-28T05:28:05.586Z,62.19
2022-10-28T05:30:31.706Z,62.34
2022-10-28T05:32:58.033Z,62.25
2022-10-28T05:35:24.298Z,62.50
2022-10-28T05:37:50.409Z,62.63
2022-10-28T05:40:16.508Z,62.68
2022-10-28T05:42:42.602Z,62.67
2022-10-28T05:45:08.753Z,62.88
2022-10-28T05:47:36.515Z,62.76
2022-10-28T05:50:05.390Z,62.81
2022-10-28T05:52:31.488Z,62.84
2022-10-28T05:54:57.585Z,62.85
2022-10-28T05:57:23.677Z,62.82
2022-10-28T05:59:49.791Z,62.84
2022-10-28T06:02:15.878Z,62.86
2022-10-28T06:04:41.977Z,62.88
2022-10-28T06:07:08.150Z,62.81
2022-10-28T06:09:34.237Z,62.84
2022-10-28T06:11:58.801Z,62.84
2022-10-28T06:14:24.950Z,62.87
2022-10-28T06:16:51.046Z,62.93
2022-10-28T06:19:17.133Z,62.96
2022-10-28T06:21:43.244Z,62.93
2022-10-28T06:24:12.178Z,62.75
2022-10-28T06:26:38.494Z,62.98
2022-10-28T06:29:04.607Z,62.95
2022-10-28T06:31:30.688Z,62.99
2022-10-28T06:33:56.796Z,62.97
2022-10-28T06:36:22.934Z,63.02
2022-10-28T06:38:49.030Z,62.94
2022-10-28T06:41:15.125Z,63.06
2022-10-28T06:43:41.235Z,62.93
2022-10-28T06:46:07.341Z,62.92
2022-10-28T06:48:34.953Z,62.93
2022-10-28T06:51:01.070Z,62.94
2022-10-28T06:53:27.196Z,63.02
2022-10-28T06:55:53.305Z,63.01
2022-10-28T06:58:19.418Z,62.96
2022-10-28T07:00:45.552Z,63.05
2022-10-28T07:03:11.649Z,62.86
2022-10-28T07:05:37.785Z,62.94
2022-10-28T07:08:03.890Z,62.93
2022-10-28T07:10:30.015Z,62.92
2022-10-28T07:12:56.597Z,62.91
2022-10-28T07:15:23.022Z,62.85
2022-10-28T07:17:49.114Z,62.79
2022-10-28T07:20:15.233Z,62.69
2022-10-28T07:22:41.338Z,62.60
2022-10-28T07:25:07.422Z,62.63
2022-10-28T07:27:33.547Z,62.43
2022-10-28T07:29:59.638Z,62.41
2022-10-28T07:32:25.736Z,62.56
2022-10-28T07:34:51.854Z,62.46
2022-10-28T07:37:17.977Z,62.33
2022-10-28T07:39:44.093Z,62.37
2022-10-28T07:42:10.198Z,62.27
2022-10-28T07:44:36.296Z,62.25
2022-10-28T07:47:02.400Z,62.10
2022-10-28T07:49:28.515Z,62.04
2022-10-28T07:51:54.607Z,62.07
2022-10-28T07:54:20.707Z,62.06
2022-10-28T07:56:47.322Z,61.95
2022-10-28T07:59:13.415Z,61.85
2022-10-28T08:01:39.614Z,61.86
2022-10-28T08:04:05.838Z,61.83
2022-10-28T08:06:31.932Z,61.71
2022-10-28T08:08:58.029Z,61.66
2022-10-28T08:11:24.196Z,61.49
2022-10-28T08:13:50.287Z,61.51
2022-10-28T08:16:16.384Z,61.45
2022-10-28T08:18:42.505Z,61.40
2022-10-28T08:21:08.630Z,61.31
2022-10-28T08:23:34.732Z,61.24
2022-10-28T08:26:00.969Z,61.13
2022-10-28T08:28:27.051Z,61.16
2022-10-28T08:31:03.992Z,61.08
2022-10-28T08:33:33.962Z,61.01
2022-10-28T08:36:00.067Z,61.01
2022-10-28T08:38:26.174Z,60.91
2022-10-28T08:40:52.340Z,60.95
2022-10-28T08:43:20.736Z,60.89
2022-10-28T08:45:52.428Z,60.78
2022-10-28T08:48:18.540Z,60.81
2022-10-28T08:50:44.636Z,60.70
2022-10-28T08:53:10.737Z,60.77
2022-10-28T08:55:36.841Z,60.61
2022-10-28T08:58:02.927Z,60.75
2022-10-28T09:00:29.029Z,60.69
2022-10-28T09:02:55.462Z,60.68
2022-10-28T09:05:21.678Z,60.74
2022-10-28T09:07:47.793Z,60.67
2022-10-28T09:10:13.929Z,60.59
2022-10-28T09:12:40.036Z,60.61
2022-10-28T09:15:06.125Z,60.42
2022-10-28T09:17:32.282Z,60.38
2022-10-28T09:19:58.377Z,60.45
2022-10-28T09:22:24.483Z,60.34
2022-10-28T09:24:50.591Z,60.32
2022-10-28T09:27:16.672Z,60.25
2022-10-28T09:29:44.344Z,60.14
2022-10-28T09:32:10.783Z,60.04
2022-10-28T09:34:36.872Z,59.80
2022-10-28T09:37:03.413Z,59.75
2022-10-28T09:39:29.537Z,59.70
2022-10-28T09:41:55.671Z,59.59
2022-10-28T09:44:21.773Z,59.33
2022-10-28T09:46:47.870Z,59.36
2022-10-28T09:49:13.976Z,59.32
2022-10-28T09:51:40.094Z,59.15
2022-10-28T09:54:06.199Z,59.17
2022-10-28T09:56:32.285Z,59.02
2022-10-28T09:58:58.386Z,58.76
2022-10-28T10:01:24.628Z,58.71
2022-10-28T10:03:50.772Z,58.54
2022-10-28T10:06:16.913Z,58.56
2022-10-28T10:08:43.057Z,58.23
2022-10-28T10:11:09.167Z,57.99
2022-10-28T10:13:35.279Z,57.70
2022-10-28T10:16:01.410Z,57.43
2022-10-28T10:18:27.500Z,57.17
2022-10-28T10:20:53.603Z,56.84
2022-10-28T10:23:19.750Z,56.69
2022-10-28T10:25:45.852Z,56.12
2022-10-28T10:28:11.944Z,55.72
2022-10-28T10:30:38.050Z,55.01
2022-10-28T10:33:04.160Z,54.40
2022-10-28T10:35:30.255Z,53.74
2022-10-28T10:37:56.612Z,53.05
2022-10-28T10:40:23.025Z,52.79
2022-10-28T10:43:03.467Z,52.53
2022-10-28T10:45:35.268Z,52.41
2022-10-28T10:48:01.407Z,51.89
2022-10-28T10:50:27.538Z,51.85
2022-10-28T10:52:53.972Z,51.79
2022-10-28T10:55:20.228Z,51.71
2022-10-28T10:57:46.331Z,51.49
2022-10-28T11:00:12.441Z,51.44
2022-10-28T11:02:38.631Z,51.48
2022-10-28T11:05:04.825Z,51.34
2022-10-28T11:07:31.233Z,51.01
2022-10-28T11:09:57.350Z,50.89
2022-10-28T11:12:23.452Z,50.81
2022-10-28T11:14:49.573Z,50.89
2022-10-28T11:17:15.675Z,50.82
2022-10-28T11:19:41.767Z,50.62
2022-10-28T11:22:08.372Z,50.54
2022-10-28T11:24:34.473Z,50.31
2022-10-28T11:27:00.583Z,50.05
2022-10-28T11:29:26.692Z,50.03
2022-10-28T11:31:52.798Z,49.76
2022-10-28T11:34:18.887Z,49.67
2022-10-28T11:36:45.004Z,49.37
2022-10-28T11:39:11.103Z,49.27
2022-10-28T11:41:37.194Z,49.04
2022-10-28T11:44:05.403Z,48.86
2022-10-28T11:46:31.703Z,48.92
2022-10-28T11:48:57.799Z,48.85
2022-10-28T11:51:23.910Z,48.53
2022-10-28T11:53:50.009Z,48.46
2022-10-28T11:56:16.102Z,48.36
2022-10-28T11:58:42.218Z,48.29
2022-10-28T12:01:08.454Z,48.22
2022-10-28T12:03:34.651Z,48.25
2022-10-28T12:06:00.789Z,48.13
2022-10-28T12:08:26.906Z,48.10
2022-10-28T12:10:52.998Z,47.78
2022-10-28T12:13:19.110Z,47.79
2022-10-28T12:15:46.213Z,47.65
2022-10-28T12:18:12.313Z,47.53
2022-10-28T12:20:38.451Z,47.38
2022-10-28T12:23:04.563Z,47.12
2022-10-28T12:25:30.661Z,47.08
2022-10-28T12:27:56.821Z,46.79
2022-10-28T12:30:23.013Z,46.71
2022-10-28T12:32:49.262Z,46.75
2022-10-28T12:35:15.376Z,46.65
2022-10-28T12:37:44.676Z,46.15
2022-10-28T12:40:13.874Z,45.89
2022-10-28T12:42:39.987Z,45.38
2022-10-28T12:45:06.120Z,45.43
2022-10-28T12:47:32.238Z,45.38
2022-10-28T12:49:58.355Z,45.07
2022-10-28T12:52:24.435Z,44.99
2022-10-28T12:54:53.547Z,45.15
2022-10-28T12:57:25.537Z,45.05
2022-10-28T12:59:51.629Z,44.75
2022-10-28T13:02:17.837Z,44.77
2022-10-28T13:04:44.118Z,44.62
2022-10-28T13:07:10.273Z,44.71
2022-10-28T13:09:39.037Z,44.75
2022-10-28T13:12:05.683Z,44.69
2022-10-28T13:14:31.777Z,44.60
2022-10-28T13:16:57.866Z,44.52
2022-10-28T13:19:23.973Z,44.68
2022-10-28T13:21:50.073Z,44.51
2022-10-28T13:24:16.270Z,44.44
2022-10-28T13:26:42.408Z,44.55
2022-10-28T13:29:08.519Z,44.59
2022-10-28T13:31:34.610Z,44.46
2022-10-28T13:34:00.725Z,44.33
2022-10-28T13:36:26.822Z,44.39
2022-10-28T13:38:52.945Z,44.44
2022-10-28T13:41:19.062Z,44.48
2022-10-28T13:43:45.162Z,44.52
2022-10-28T13:46:11.244Z,44.63
2022-10-28T13:48:37.365Z,44.75
2022-10-28T13:51:03.463Z,44.80
2022-10-28T13:53:29.571Z,44.75
2022-10-28T13:55:55.976Z,44.73
2022-10-28T13:58:22.078Z,44.65
2022-10-28T14:00:52.119Z,44.64
2022-10-28T14:03:20.133Z,44.72
2022-10-28T14:05:46.386Z,44.77
2022-10-28T14:08:12.507Z,44.88
2022-10-28T14:10:38.614Z,44.96
2022-10-28T14:13:04.797Z,45.05
2022-10-28T14:15:31.006Z,45.15
2022-10-28T14:18:04.910Z,45.24
2022-10-28T14:20:36.610Z,45.22
2022-10-28T14:23:03.065Z,45.33
2022-10-28T14:25:29.170Z,45.46
2022-10-28T14:27:55.690Z,45.57
2022-10-28T14:30:22.437Z,45.53
2022-10-28T14:32:48.536Z,45.56
2022-10-28T14:35:14.727Z,45.67
2022-10-28T14:37:40.838Z,45.85
2022-10-28T14:40:06.941Z,45.86
2022-10-28T14:42:33.041Z,45.98
2022-10-28T14:44:59.174Z,46.10
2022-10-28T14:47:25.266Z,46.27
2022-10-28T14:49:51.387Z,46.45
2022-10-28T14:52:17.501Z,46.66
2022-10-28T14:54:43.614Z,46.80
2022-10-28T14:57:09.711Z,47.16
2022-10-28T14:59:36.107Z,47.30
2022-10-28T15:02:02.399Z,47.52
2022-10-28T15:04:28.608Z,47.79
2022-10-28T15:06:54.731Z,47.92
2022-10-28T15:09:20.869Z,48.12
2022-10-28T15:11:46.979Z,48.34
2022-10-28T15:14:13.370Z,48.47
2022-10-28T15:16:39.455Z,48.70
2022-10-28T15:19:05.547Z,48.89
2022-10-28T15:21:31.669Z,48.95
2022-10-28T15:23:57.781Z,49.21
2022-10-28T15:26:23.963Z,49.38
2022-10-28T15:28:50.217Z,49.50
2022-10-28T15:31:16.681Z,49.66
2022-10-28T15:33:42.892Z,49.88
2022-10-28T15:36:12.590Z,50.06
2022-10-28T15:38:43.567Z,50.12
2022-10-28T15:41:09.667Z,50.34
2022-10-28T15:43:35.782Z,50.50
2022-10-28T15:46:01.891Z,50.72
2022-10-28T15:48:27.979Z,50.82
2022-10-28T15:50:54.116Z,51.16
2022-10-28T15:53:20.199Z,51.34
2022-10-28T15:58:32.392Z,51.97
2022-10-28T16:00:58.578Z,51.97
2022-10-28T16:03:24.885Z,52.25
2022-10-28T16:05:51.024Z,52.35
2022-10-28T16:08:17.137Z,52.63
2022-10-28T16:10:43.246Z,52.90
2022-10-28T16:13:11.764Z,53.23
2022-10-28T16:15:37.886Z,53.45
2022-10-28T16:18:03.987Z,53.68
2022-10-28T16:20:30.160Z,53.85
2022-10-28T16:22:56.313Z,54.11
2022-10-28T16:25:22.471Z,54.35
2022-10-28T16:27:51.876Z,54.55
2022-10-28T16:30:19.802Z,54.80
2022-10-28T16:32:45.944Z,55.00
2022-10-28T16:35:12.085Z,55.07
2022-10-28T16:37:43.375Z,55.39
2022-10-28T16:40:37.756Z,55.64
2022-10-28T16:42:59.869Z,55.80
2022-10-28T16:45:25.996Z,56.01
2022-10-28T16:47:52.279Z,56.09
2022-10-28T16:50:18.603Z,56.19
2022-10-28T16:52:44.704Z,56.48
2022-10-28T16:55:10.791Z,56.57
2022-10-28T16:57:36.908Z,56.71
2022-10-28T17:00:03.065Z,56.75
2022-10-28T17:02:29.395Z,56.92
2022-10-28T17:04:55.623Z,56.95
2022-10-28T17:07:21.752Z,57.32
2022-10-28T17:09:47.849Z,57.32
2022-10-28T17:12:16.258Z,57.38
2022-10-28T17:14:42.378Z,57.49
2022-10-28T17:17:08.486Z,57.71
2022-10-28T17:19:34.578Z,57.92
2022-10-28T17:22:00.686Z,57.96
2022-10-28T17:24:26.777Z,58.14
2022-10-28T17:26:52.871Z,58.18
2022-10-28T17:29:18.985Z,58.31
2022-10-28T17:31:45.078Z,58.44
2022-10-28T17:34:11.187Z,58.49
2022-10-28T17:36:37.312Z,58.55
2022-10-28T17:39:03.405Z,58.59
2022-10-28T17:41:29.511Z,58.66
2022-10-28T17:43:55.926Z,58.80
2022-10-28T17:46:22.021Z,58.89
2022-10-28T17:48:48.121Z,58.98
2022-10-28T17:51:14.244Z,59.16
2022-10-28T17:53:40.355Z,59.19
2022-10-28T17:56:06.555Z,59.30
2022-10-28T17:58:32.765Z,59.46
2022-10-28T18:00:58.870Z,59.70
2022-10-28T18:03:25.034Z,59.94
2022-10-28T18:05:51.148Z,60.16
2022-10-28T18:08:17.242Z,60.31
2022-10-28T18:10:43.345Z,60.51
2022-10-28T18:13:09.452Z,60.57
2022-10-28T18:15:35.553Z,60.70
2022-10-28T18:18:01.650Z,60.78
2022-10-28T18:20:27.912Z,60.82
2022-10-28T18:22:54.191Z,60.93
2022-10-28T18:25:20.422Z,60.98
2022-10-28T18:27:46.541Z,61.13
2022-10-28T18:30:12.648Z,61.25
2022-10-28T18:32:38.757Z,61.32
2022-10-28T18:35:04.952Z,61.38
2022-10-28T18:37:31.042Z,61.51
2022-10-28T18:39:57.157Z,61.46
2022-10-28T18:42:23.574Z,61.59
2022-10-28T18:44:49.664Z,61.52
2022-10-28T18:47:15.837Z,61.56
2022-10-28T18:49:41.954Z,61.73
2022-10-28T18:52:08.052Z,61.93
2022-10-28T18:54:34.128Z,62.18
2022-10-28T18:57:00.240Z,62.09
2022-10-28T18:59:26.349Z,62.15
2022-10-28T19:01:52.498Z,62.25
2022-10-28T19:04:18.667Z,62.47
2022-10-28T19:06:44.745Z,62.84
2022-10-28T19:09:10.839Z,62.96
2022-10-28T19:11:36.954Z,63.25
2022-10-28T19:14:03.055Z,63.29
2022-10-28T19:16:29.153Z,63.50
2022-10-28T19:18:55.278Z,63.36
2022-10-28T19:21:21.569Z,63.33
2022-10-28T19:23:47.745Z,63.37
2022-10-28T19:26:13.992Z,63.38
2022-10-28T19:28:40.093Z,63.47
2022-10-28T19:31:06.192Z,63.61
2022-10-28T19:33:32.316Z,63.79
2022-10-28T19:35:58.414Z,63.83
2022-10-28T19:38:24.505Z,63.77
2022-10-28T19:40:50.624Z,63.84
2022-10-28T19:43:16.930Z,63.96
2022-10-28T19:45:43.150Z,64.15
2022-10-28T19:48:09.357Z,64.09
2022-10-28T19:50:35.499Z,64.19
2022-10-28T19:53:01.606Z,64.34
2022-10-28T19:55:28.018Z,64.12
2022-10-28T19:57:54.492Z,64.23
2022-10-28T20:00:20.776Z,64.35
2022-10-28T20:02:47.503Z,64.31
2022-10-28T20:05:13.660Z,64.46
2022-10-28T20:07:39.759Z,64.52
2022-10-28T20:10:05.881Z,64.60
2022-10-28T20:12:31.975Z,64.69
2022-10-28T20:14:58.057Z,64.74
2022-10-28T20:17:24.180Z,64.75
2022-10-28T20:19:50.263Z,64.87
2022-10-28T20:22:16.357Z,65.02
2022-10-28T20:24:42.478Z,65.01
2022-10-28T20:27:08.571Z,65.07
2022-10-28T20:29:34.691Z,65.17
2022-10-28T20:32:00.787Z,65.33
2022-10-28T20:34:26.862Z,65.37
2022-10-28T20:36:52.959Z,65.55
2022-10-28T20:39:19.068Z,65.65
2022-10-28T20:41:45.179Z,65.62
2022-10-28T20:44:11.254Z,65.78
2022-10-28T20:46:37.365Z,65.88
2022-10-28T20:49:03.537Z,66.02
2022-10-28T20:51:29.631Z,66.02
2022-10-28T20:53:55.782Z,65.99
2022-10-28T20:56:21.870Z,66.07
2022-10-28T20:58:47.971Z,66.20
2022-10-28T21:01:14.238Z,66.29
2022-10-28T21:03:40.462Z,66.27
2022-10-28T21:06:06.606Z,66.37
2022-10-28T21:08:32.742Z,66.34
2022-10-28T21:10:58.835Z,66.35
2022-10-28T21:13:24.924Z,66.41
2022-10-28T21:15:56.399Z,66.45
2022-10-28T21:18:23.885Z,66.42
2022-10-28T21:20:50.002Z,66.44
2022-10-28T21:23:16.123Z,66.47
2022-10-28T21:25:45.225Z,66.57
2022-10-28T21:28:11.399Z,66.54
2022-10-28T21:30:37.508Z,66.55
2022-10-28T21:33:03.610Z,66.73
2022-10-28T21:35:29.695Z,66.87
2022-10-28T21:37:56.263Z,66.89
2022-10-28T21:40:22.661Z,66.90
2022-10-28T21:42:48.773Z,67.08
2022-10-28T21:45:14.880Z,67.08
2022-10-28T21:47:40.979Z,67.14
2022-10-28T21:50:07.148Z,67.04
2022-10-28T21:52:33.263Z,67.12
2022-10-28T21:55:00.864Z,67.12
2022-10-28T21:57:27.181Z,67.13
2022-10-28T21:59:53.340Z,67.13
2022-10-28T22:02:19.526Z,67.04
2022-10-28T22:04:45.694Z,67.10
2022-10-28T22:07:11.853Z,67.28
2022-10-28T22:09:37.949Z,67.24
2022-10-28T22:12:04.058Z,67.19
2022-10-28T22:14:30.186Z,67.27
2022-10-28T22:16:56.312Z,67.23
2022-10-28T22:19:22.454Z,67.21
2022-10-28T22:21:48.566Z,67.25
2022-10-28T22:24:14.673Z,67.40
2022-10-28T22:26:40.759Z,67.23
2022-10-28T22:29:06.879Z,67.38
2022-10-28T22:31:32.972Z,67.38
2022-10-28T22:33:59.084Z,67.36
2022-10-28T22:36:25.743Z,67.42
2022-10-28T22:38:54.602Z,67.58
2022-10-28T22:41:20.698Z,67.62
2022-10-28T22:43:46.806Z,67.54
2022-10-28T22:46:12.929Z,67.58
2022-10-28T22:48:39.028Z,67.53
2022-10-28T22:51:05.187Z,67.63
2022-10-28T22:53:31.287Z,67.62
2022-10-28T22:55:57.376Z,67.67
2022-10-28T22:58:23.509Z,67.77
2022-10-28T23:00:49.617Z,67.78
2022-10-28T23:03:15.721Z,67.81
2022-10-28T23:05:42.363Z,67.92
2022-10-28T23:08:08.461Z,67.89
2022-10-28T23:10:34.542Z,67.81
2022-10-28T23:13:00.644Z,67.97
2022-10-28T23:15:26.747Z,68.04
2022-10-28T23:17:52.960Z,67.99
2022-10-28T23:20:19.313Z,68.08
2022-10-28T23:22:45.421Z,68.11
2022-10-28T23:25:11.512Z,68.02
2022-10-28T23:27:37.665Z,68.01
2022-10-28T23:30:03.802Z,68.08
2022-10-28T23:32:29.917Z,68.18
2022-10-28T23:34:56.039Z,68.17
2022-10-28T23:37:22.145Z,68.26
2022-10-28T23:39:48.249Z,68.23
2022-10-28T23:42:14.371Z,68.27
2022-10-28T23:44:40.476Z,68.27
2022-10-28T23:47:06.583Z,68.25
2022-10-28T23:49:32.695Z,68.38
2022-10-28T23:51:58.788Z,68.42
2022-10-28T23:54:24.892Z,68.46
2022-10-28T23:56:51.014Z,68.56
2022-10-28T23:59:17.121Z,68.71
